Time;durP1;ratioP1;P1;durP2;ratioP2;P2;SDS_P1;SDS_P2;PMS_P1;PMS_P2;Temp;Humidity;BMP_temperature;BMP_pressure;BME280_temperature;BME280_humidity;BME280_pressure;Samples;Min_cycle;Max_cycle;Signal;HPM_P1;HPM_P2
2023/10/07 00:00:54;;;;;;;1999.90;999.90;;;7.50;99.90;;;;;;5056242;28;20033;-74
2023/10/07 00:03:20;;;;;;;1999.90;999.90;;;7.50;99.90;;;;;;5056441;28;20095;-76
2023/10/07 00:05:47;;;;;;;1999.90;999.90;;;7.50;99.90;;;;;;5054691;28;20522;-75
2023/10/07 00:08:16;;;;;;;1999.90;999.90;;;7.60;99.90;;;;;;5055010;28;20107;-75
2023/10/07 00:10:49;;;;;;;1999.90;999.90;;;7.50;99.90;;;;;;5056131;28;20033;-75
2023/10/07 00:13:17;;;;;;;1999.90;999.90;;;7.50;99.90;;;;;;5054896;28;20135;-75
2023/10/07 00:15:43;;;;;;;1999.90;999.90;;;7.50;99.90;;;;;;5054599;28;20120;-78
2023/10/07 00:18:13;;;;;;;1999.90;999.90;;;7.50;99.90;;;;;;5054422;28;20037;-74
2023/10/07 00:20:48;;;;;;;1999.90;999.90;;;7.40;99.90;;;;;;5055915;28;20024;-74
2023/10/07 00:23:18;;;;;;;1999.90;999.90;;;7.40;99.90;;;;;;5054649;28;20047;-75
2023/10/07 00:25:49;;;;;;;1999.90;999.90;;;7.50;99.90;;;;;;5054415;28;20030;-75
2023/10/07 00:28:19;;;;;;;1999.90;999.90;;;7.70;99.90;;;;;;5054193;28;20034;-74
2023/10/07 00:30:45;;;;;;;1999.90;999.90;;;7.50;99.90;;;;;;5055537;28;20025;-74
2023/10/07 00:33:13;;;;;;;1999.90;999.90;;;7.50;99.90;;;;;;5054389;28;20182;-76
2023/10/07 00:35:39;;;;;;;1999.90;999.90;;;7.60;99.90;;;;;;5054040;28;20046;-76
2023/10/07 00:38:05;;;;;;;1999.90;999.90;;;7.60;99.90;;;;;;5053931;28;20124;-75
2023/10/07 00:40:32;;;;;;;1999.90;999.90;;;7.50;99.90;;;;;;5056076;28;20120;-75
2023/10/07 00:42:58;;;;;;;1999.90;999.90;;;7.60;99.90;;;;;;5055674;28;20040;-74
2023/10/07 00:45:26;;;;;;;1999.90;999.90;;;7.50;99.90;;;;;;5054315;28;20030;-74
2023/10/07 00:47:53;;;;;;;1999.90;999.90;;;7.50;99.90;;;;;;5054990;28;20038;-74
2023/10/07 00:50:25;;;;;;;1999.90;999.90;;;7.30;99.90;;;;;;5054072;28;20041;-76
2023/10/07 00:55:36;;;;;;;1999.90;999.90;;;7.50;99.90;;;;;;5055303;28;20030;-74
2023/10/07 00:58:35;;;;;;;1999.90;999.90;;;7.50;99.90;;;;;;5053088;28;20180;-74
2023/10/07 01:00:56;;;;;;;1999.90;999.90;;;7.50;99.90;;;;;;5052892;28;20042;-74
2023/10/07 01:11:21;;;;;;;1999.90;999.90;;;7.30;99.90;;;;;;5030369;28;20045;-75
2023/10/07 01:13:50;;;;;;;1999.90;999.90;;;7.30;99.90;;;;;;5055493;28;20128;-74
2023/10/07 01:21:50;;;;;;;1999.90;999.90;;;7.20;99.90;;;;;;5054371;28;20462;-77
2023/10/07 01:24:23;;;;;;;1999.90;999.90;;;7.20;99.90;;;;;;5057507;28;20120;-74
2023/10/07 01:26:49;;;;;;;1999.90;999.90;;;7.20;99.90;;;;;;5055534;28;20040;-74
2023/10/07 01:29:15;;;;;;;1999.90;999.90;;;7.20;99.90;;;;;;5055930;28;20119;-75
2023/10/07 01:31:59;;;;;;;1999.90;999.90;;;7.10;99.90;;;;;;5056829;28;21162;-75
2023/10/07 01:34:34;;;;;;;1999.90;999.90;;;7.10;99.90;;;;;;5057010;28;20045;-75
2023/10/07 01:37:03;;;;;;;1999.90;999.90;;;7.00;99.90;;;;;;5056424;28;20041;-75
2023/10/07 01:39:31;;;;;;;1999.90;999.90;;;7.10;99.90;;;;;;5057110;28;20057;-74
2023/10/07 01:42:01;;;;;;;1999.90;999.90;;;7.00;99.90;;;;;;5058364;28;20034;-74
2023/10/07 01:44:30;;;;;;;1999.90;999.90;;;6.90;99.90;;;;;;5056916;28;20415;-75
2023/10/07 01:46:56;;;;;;;1999.90;999.90;;;6.90;99.90;;;;;;5056366;28;20123;-74
2023/10/07 01:49:22;;;;;;;1999.90;999.90;;;6.90;99.90;;;;;;5057005;28;20121;-75
2023/10/07 01:51:51;;;;;;;1999.90;999.90;;;6.90;99.90;;;;;;5056842;28;20057;-74
2023/10/07 01:54:19;;;;;;;1999.90;999.90;;;7.10;99.90;;;;;;5056977;28;20025;-75
2023/10/07 01:56:48;;;;;;;1999.90;999.90;;;7.00;99.90;;;;;;5055756;28;20041;-80
2023/10/07 02:01:42;;;;;;;1999.90;999.90;;;6.80;99.90;;;;;;5057961;28;20468;-74
2023/10/07 02:04:16;;;;;;;1999.90;999.90;;;6.70;99.90;;;;;;5055942;28;20604;-74
2023/10/07 02:06:51;;;;;;;1999.90;999.90;;;6.70;99.90;;;;;;5056043;28;20097;-75
2023/10/07 02:09:23;;;;;;;1999.90;999.90;;;6.80;99.90;;;;;;5056221;28;20032;-75
2023/10/07 02:11:54;;;;;;;1999.90;999.90;;;6.70;99.90;;;;;;5056077;28;20041;-74
2023/10/07 02:14:24;;;;;;;1999.90;999.90;;;6.90;99.90;;;;;;5055936;28;20029;-74
2023/10/07 02:16:53;;;;;;;1999.90;999.90;;;6.60;99.90;;;;;;5055365;28;20033;-74
2023/10/07 02:19:29;;;;;;;1999.90;999.90;;;6.60;99.90;;;;;;5055496;28;20029;-75
2023/10/07 02:22:08;;;;;;;1999.90;999.90;;;6.60;99.90;;;;;;5055636;28;20510;-77
2023/10/07 02:24:35;;;;;;;1999.90;999.90;;;6.60;99.90;;;;;;5054025;28;20495;-75
2023/10/07 02:27:06;;;;;;;1999.90;999.90;;;6.80;99.90;;;;;;5055868;28;20033;-74
2023/10/07 02:29:35;;;;;;;1999.90;999.90;;;6.80;99.90;;;;;;5056469;28;20033;-77
2023/10/07 02:32:35;;;;;;;1999.90;999.90;;;6.60;99.90;;;;;;5056250;28;20065;-74
2023/10/07 02:34:53;;;;;;;1999.90;999.90;;;6.60;99.90;;;;;;5052692;28;20033;-74
2023/10/07 02:37:25;;;;;;;1999.90;999.90;;;6.60;99.90;;;;;;5055944;28;20388;-74
2023/10/07 02:40:04;;;;;;;1999.90;999.90;;;6.60;99.90;;;;;;5055185;28;20056;-75
2023/10/07 02:42:31;;;;;;;1999.90;999.90;;;6.90;99.90;;;;;;5055438;28;20033;-74
2023/10/07 02:47:50;;;;;;;1999.90;999.90;;;6.70;99.90;;;;;;5055423;28;20041;-75
2023/10/07 02:50:19;;;;;;;1999.90;999.90;;;6.70;99.90;;;;;;5057304;28;20068;-74
2023/10/07 02:52:49;;;;;;;1999.90;999.90;;;6.70;99.90;;;;;;5055814;28;20037;-75
2023/10/07 02:57:47;;;;;;;1999.90;999.90;;;6.80;99.90;;;;;;5056321;28;20455;-74
2023/10/07 03:00:36;;;;;;;1999.90;999.90;;;6.70;99.90;;;;;;5056300;28;20099;-74
2023/10/07 03:05:44;;;;;;;1999.90;999.90;;;6.70;99.90;;;;;;5054205;28;20022;-74
2023/10/07 03:08:19;;;;;;;1999.90;999.90;;;6.70;99.90;;;;;;5055361;28;20088;-75
2023/10/07 03:13:37;;;;;;;1999.90;999.90;;;6.60;99.90;;;;;;5057271;28;20065;-74
2023/10/07 03:18:55;;;;;;;1999.90;999.90;;;6.60;99.90;;;;;;5056170;28;20495;-74
2023/10/07 03:21:21;;;;;;;1999.90;999.90;;;6.60;99.90;;;;;;5055568;28;20038;-74
2023/10/07 03:23:48;;;;;;;1999.90;999.90;;;6.50;99.90;;;;;;5056427;28;20037;-75
2023/10/07 03:26:22;;;;;;;1999.90;999.90;;;6.60;99.90;;;;;;5054915;28;20878;-77
2023/10/07 03:28:55;;;;;;;1999.90;999.90;;;6.60;99.90;;;;;;5054493;28;20036;-75
2023/10/07 03:32:08;;;;;;;1999.90;999.90;;;6.60;99.90;;;;;;5056359;28;20141;-75
2023/10/07 03:34:12;;;;;;;1999.90;999.90;;;6.60;99.90;;;;;;5046988;28;20041;-74
2023/10/07 03:36:41;;;;;;;1999.90;999.90;;;6.60;99.90;;;;;;5055195;28;20025;-74
2023/10/07 03:41:41;;;;;;;1999.90;999.90;;;6.60;99.90;;;;;;5052510;28;20033;-74
2023/10/07 03:44:07;;;;;;;1999.90;999.90;;;6.50;99.90;;;;;;5053760;28;20048;-76
2023/10/07 03:46:34;;;;;;;1999.90;999.90;;;6.60;99.90;;;;;;5054512;28;20029;-76
2023/10/07 03:49:01;;;;;;;1999.90;999.90;;;6.60;99.90;;;;;;5056309;28;20108;-74
2023/10/07 03:51:30;;;;;;;1999.90;999.90;;;6.50;99.90;;;;;;5056518;28;20052;-74
2023/10/07 03:54:06;;;;;;;1999.90;999.90;;;6.60;99.90;;;;;;5056028;28;20038;-74
2023/10/07 03:56:32;;;;;;;1999.90;999.90;;;6.70;99.90;;;;;;5054906;28;20503;-77
2023/10/07 03:58:59;;;;;;;1999.90;999.90;;;6.70;99.90;;;;;;5054879;28;20068;-77
2023/10/07 04:01:26;;;;;;;1999.90;999.90;;;6.70;99.90;;;;;;5056325;28;20061;-74
2023/10/07 04:03:59;;;;;;;1999.90;999.90;;;6.70;99.90;;;;;;5056258;28;20047;-75
2023/10/07 04:06:30;;;;;;;1999.90;999.90;;;6.50;99.90;;;;;;5056343;28;20831;-76
2023/10/07 04:09:05;;;;;;;1999.90;999.90;;;6.60;99.90;;;;;;5056407;28;20416;-75
2023/10/07 04:11:36;;;;;;;1999.90;999.90;;;6.50;99.90;;;;;;5054951;28;20088;-75
2023/10/07 04:14:19;;;;;;;1999.90;999.90;;;6.50;99.90;;;;;;5055090;28;20044;-74
2023/10/07 04:16:48;;;;;;;1999.90;999.90;;;6.40;99.90;;;;;;5054646;28;20047;-74
2023/10/07 04:21:43;;;;;;;1999.90;999.90;;;6.30;99.90;;;;;;5056154;28;20520;-75
2023/10/07 04:24:10;;;;;;;1999.90;999.90;;;6.20;99.90;;;;;;5054871;28;20041;-74
2023/10/07 04:26:39;;;;;;;1999.90;999.90;;;6.20;99.90;;;;;;5054337;28;20030;-75
2023/10/07 04:29:14;;;;;;;1999.90;999.90;;;6.30;99.90;;;;;;5054848;28;20029;-75
2023/10/07 04:31:57;;;;;;;1999.90;999.90;;;6.30;99.90;;;;;;5056323;28;20029;-77
2023/10/07 04:34:24;;;;;;;1999.90;999.90;;;6.30;99.90;;;;;;5054504;28;20128;-75
2023/10/07 04:39:39;;;;;;;1999.90;999.90;;;6.30;99.90;;;;;;5052840;28;20850;-74
2023/10/07 04:42:20;;;;;;;1999.90;999.90;;;6.30;99.90;;;;;;5054795;28;20124;-76
2023/10/07 04:47:38;;;;;;;1999.90;999.90;;;6.40;99.90;;;;;;5053595;28;20033;-74
2023/10/07 04:52:31;;;;;;;1999.90;999.90;;;6.40;99.90;;;;;;5059408;28;20037;-74
2023/10/07 04:54:58;;;;;;;1999.90;999.90;;;6.30;99.90;;;;;;5059113;28;20062;-74
2023/10/07 05:01:04;;;;;;;1999.90;999.90;;;6.20;99.90;;;;;;4956405;28;20052;-73
2023/10/07 05:03:08;;;;;;;1999.90;999.90;;;6.20;99.90;;;;;;4951239;28;20067;-73
2023/10/07 05:05:34;;;;;;;1999.90;999.90;;;6.10;99.90;;;;;;4955740;28;20082;-73
2023/10/07 05:08:10;;;;;;;1999.90;999.90;;;6.10;99.90;;;;;;4955477;28;20102;-73
2023/10/07 05:10:41;;;;;;;1999.90;999.90;;;6.10;99.90;;;;;;4955976;28;20032;-73
2023/10/07 05:13:07;;;;;;;1999.90;999.90;;;6.00;99.90;;;;;;4955978;28;20059;-73
2023/10/07 05:15:38;;;;;;;1999.90;999.90;;;6.00;99.90;;;;;;4954353;28;20098;-73
2023/10/07 05:18:04;;;;;;;1999.90;999.90;;;6.00;99.90;;;;;;4955466;28;20040;-73
2023/10/07 05:20:33;;;;;;;1999.90;999.90;;;6.00;99.90;;;;;;4955837;28;20509;-73
2023/10/07 05:23:02;;;;;;;1999.90;999.90;;;6.00;99.90;;;;;;4955617;28;20043;-72
2023/10/07 05:25:38;;;;;;;1999.90;999.90;;;6.00;99.90;;;;;;4955412;28;20042;-73
2023/10/07 05:28:10;;;;;;;1999.90;999.90;;;6.00;99.90;;;;;;4955096;28;20032;-75
2023/10/07 05:30:36;;;;;;;1999.90;999.90;;;6.00;99.90;;;;;;4955462;28;20878;-75
2023/10/07 05:33:08;;;;;;;1999.90;999.90;;;6.00;99.90;;;;;;4955492;28;20040;-76
2023/10/07 05:35:37;;;;;;;1999.90;999.90;;;5.90;99.90;;;;;;4953933;28;20039;-75
2023/10/07 05:38:09;;;;;;;1999.90;999.90;;;6.00;99.90;;;;;;4955007;28;20498;-75
2023/10/07 05:40:38;;;;;;;1999.90;999.90;;;6.00;99.90;;;;;;4955550;28;20040;-75
2023/10/07 05:43:08;;;;;;;1999.90;999.90;;;6.00;99.90;;;;;;4955229;28;20036;-74
2023/10/07 05:45:34;;;;;;;1999.90;999.90;;;6.00;99.90;;;;;;4953942;28;20036;-74
2023/10/07 05:48:03;;;;;;;1999.90;999.90;;;6.00;99.90;;;;;;4955021;28;20086;-75
2023/10/07 05:50:32;;;;;;;1999.90;999.90;;;6.00;99.90;;;;;;4955262;28;20114;-74
2023/10/07 05:53:04;;;;;;;1999.90;999.90;;;6.10;99.90;;;;;;4955386;28;20035;-74
2023/10/07 05:55:30;;;;;;;1999.90;999.90;;;6.10;99.90;;;;;;4955413;28;20032;-74
2023/10/07 05:57:58;;;;;;;1999.90;999.90;;;6.00;99.90;;;;;;4954747;28;20559;-74
2023/10/07 06:00:25;;;;;;;1999.90;999.90;;;6.10;99.90;;;;;;4953755;28;20512;-75
2023/10/07 06:02:53;;;;;;;1999.90;999.90;;;6.10;99.90;;;;;;4955510;28;20035;-75
2023/10/07 06:05:20;;;;;;;1999.90;999.90;;;6.10;99.90;;;;;;4955556;28;20042;-75
2023/10/07 06:07:46;;;;;;;1999.90;999.90;;;6.20;99.90;;;;;;4954096;28;20046;-74
2023/10/07 06:10:12;;;;;;;1999.90;999.90;;;6.20;99.90;;;;;;4955205;28;20054;-75
2023/10/07 06:12:37;;;;;;;1999.90;999.90;;;6.20;99.90;;;;;;4953670;28;20127;-76
2023/10/07 06:15:10;;;;;;;1999.90;999.90;;;6.30;99.90;;;;;;4953676;28;20142;-75
2023/10/07 06:17:36;;;;;;;1999.90;999.90;;;6.30;99.90;;;;;;4954767;28;20062;-75
2023/10/07 06:20:26;;;;;;;1999.90;999.90;;;6.40;99.90;;;;;;4955415;28;20027;-76
2023/10/07 06:22:50;;;;;;;1999.90;999.90;;;6.40;99.90;;;;;;4954716;28;20031;-75
2023/10/07 06:25:16;;;;;;;1999.90;999.90;;;6.60;99.90;;;;;;4955716;28;20040;-75
2023/10/07 06:27:43;;;;;;;1999.90;999.90;;;6.60;99.90;;;;;;4953287;28;20046;-76
2023/10/07 06:30:19;;;;;;;1999.90;999.90;;;6.70;99.90;;;;;;4953654;28;20123;-75
2023/10/07 06:32:46;;;;;;;1999.90;999.90;;;6.80;99.90;;;;;;4953782;28;20031;-75
2023/10/07 06:35:21;;;;;;;1999.90;999.90;;;6.90;99.90;;;;;;4953788;28;20501;-76
2023/10/07 06:37:47;;;;;;;1999.90;999.90;;;7.10;99.90;;;;;;4954472;28;20044;-75
2023/10/07 06:40:35;;;;;;;1999.90;999.90;;;7.30;99.90;;;;;;4955289;28;20036;-75
2023/10/07 06:42:58;;;;;;;1999.90;999.90;;;7.60;99.90;;;;;;4955034;28;20047;-75
2023/10/07 06:45:35;;;;;;;1999.90;999.90;;;8.00;99.90;;;;;;4953496;28;20032;-76
2023/10/07 06:48:05;;;;;;;1999.90;999.90;;;8.10;99.90;;;;;;4954651;28;20086;-75
2023/10/07 06:50:33;;;;;;;1999.90;999.90;;;8.40;99.90;;;;;;4954860;28;20081;-75
2023/10/07 06:52:58;;;;;;;1999.90;999.90;;;8.50;99.90;;;;;;4954783;28;20032;-76
2023/10/07 06:55:24;;;;;;;1999.90;999.90;;;8.70;99.90;;;;;;4955269;28;20042;-77
2023/10/07 06:57:56;;;;;;;1999.90;999.90;;;8.90;99.90;;;;;;4954091;28;20619;-77
2023/10/07 07:00:23;;;;;;;1999.90;999.90;;;9.00;99.90;;;;;;4953624;28;20048;-76
2023/10/07 07:02:59;;;;;;;1999.90;999.90;;;9.20;99.90;;;;;;4953567;28;20435;-77
2023/10/07 07:05:25;;;;;;;1999.90;999.90;;;9.40;99.90;;;;;;4955156;28;20132;-76
2023/10/07 07:07:54;;;;;;;1999.90;999.90;;;9.40;99.90;;;;;;4954570;28;20631;-75
2023/10/07 07:10:27;;;;;;;1999.90;999.90;;;9.50;99.90;;;;;;4953611;28;20110;-76
2023/10/07 07:13:05;;;;;;;1999.90;999.90;;;9.60;99.90;;;;;;4953238;28;20040;-76
2023/10/07 07:15:36;;;;;;;1999.90;999.90;;;9.70;99.90;;;;;;4953276;28;20031;-76
2023/10/07 07:23:32;;;;;;;1999.90;999.90;;;10.10;99.90;;;;;;4954321;28;20036;-76
2023/10/07 07:28:30;;;;;;;1999.90;999.90;;;10.50;99.90;;;;;;4953194;28;20040;-76
2023/10/07 07:30:57;;;;;;;1999.90;999.90;;;10.60;99.90;;;;;;4954729;28;20104;-76
2023/10/07 07:33:28;;;;;;;1999.90;999.90;;;10.70;99.90;;;;;;4953601;28;20042;-76
2023/10/07 07:35:56;;;;;;;1999.90;999.90;;;10.80;99.90;;;;;;4954083;28;20553;-76
2023/10/07 07:38:29;;;;;;;1999.90;999.90;;;10.90;99.90;;;;;;4954209;28;20106;-76
2023/10/07 07:41:05;;;;;;;1999.90;999.90;;;11.00;99.90;;;;;;4953152;28;20036;-76
2023/10/07 07:43:36;;;;;;;1999.90;999.90;;;11.10;99.90;;;;;;4954467;28;20035;-78
2023/10/07 07:46:18;;;;;;;1999.90;999.90;;;11.20;99.90;;;;;;4954400;28;20067;-76
2023/10/07 07:48:48;;;;;;;1999.90;999.90;;;11.40;99.90;;;;;;4954566;28;20852;-76
2023/10/07 07:51:16;;;;;;;1999.90;999.90;;;11.50;99.90;;;;;;4954410;28;20031;-76
2023/10/07 07:53:45;;;;;;;1999.90;999.90;;;11.60;99.90;;;;;;4954432;28;20036;-76
2023/10/07 07:56:14;;;;;;;1999.90;999.90;;;11.90;99.90;;;;;;4953706;28;20075;-75
2023/10/07 07:58:41;;;;;;;1999.90;999.90;;;12.20;99.90;;;;;;4953499;28;20513;-76
2023/10/07 08:01:15;;;;;;;1999.90;999.90;;;12.50;99.90;;;;;;4954058;28;20036;-76
2023/10/07 08:03:41;;;;;;;1999.90;999.90;;;12.90;99.90;;;;;;4954404;28;20117;-76
2023/10/07 08:06:11;;;;;;;1999.90;999.90;;;13.00;99.90;;;;;;4954355;28;20036;-76
2023/10/07 08:08:37;;;;;;;1999.90;999.90;;;13.20;99.90;;;;;;4954263;28;20038;-76
2023/10/07 08:11:05;;;;;;;1999.90;999.90;;;13.30;99.90;;;;;;4953920;28;20039;-76
2023/10/07 08:13:31;;;;;;;1999.90;999.90;;;13.30;99.90;;;;;;4954209;28;20111;-76
2023/10/07 08:16:05;;;;;;;1999.90;999.90;;;13.30;99.90;;;;;;4952354;28;20036;-76
2023/10/07 08:18:30;;;;;;;1999.90;999.90;;;13.50;99.90;;;;;;4953883;28;20036;-76
2023/10/07 08:21:06;;;;;;;1999.90;999.90;;;13.50;99.90;;;;;;4953997;28;20032;-76
2023/10/07 08:23:36;;;;;;;1999.90;999.90;;;13.60;99.90;;;;;;4952610;28;20877;-76
2023/10/07 08:26:12;;;;;;;1999.90;999.90;;;13.70;99.90;;;;;;4953653;28;20043;-76
2023/10/07 08:28:59;;;;;;;1999.90;999.90;;;13.90;99.90;;;;;;4952156;28;20043;-76
2023/10/07 08:31:37;;;;;;;1999.90;999.90;;;14.00;99.90;;;;;;4953675;28;20116;-76
2023/10/07 08:34:15;;;;;;;1999.90;999.90;;;14.20;99.90;;;;;;4952478;28;20441;-76
2023/10/07 08:36:44;;;;;;;1999.90;999.90;;;14.20;99.90;;;;;;4952281;28;20453;-76
2023/10/07 08:39:10;;;;;;;1999.90;999.90;;;14.30;99.90;;;;;;4953500;28;20095;-76
2023/10/07 08:41:38;;;;;;;1999.90;999.90;;;14.40;99.90;;;;;;4953680;28;20032;-77
2023/10/07 08:44:12;;;;;;;1999.90;999.90;;;14.50;99.90;;;;;;4953811;28;20119;-76
2023/10/07 08:46:53;;;;;;;1999.90;999.90;;;14.60;99.90;;;;;;4953860;28;20036;-76
2023/10/07 08:49:26;;;;;;;1999.90;999.90;;;14.60;99.90;;;;;;4953874;28;20031;-76
2023/10/07 08:51:54;;;;;;;1999.90;999.90;;;14.70;99.90;;;;;;4953556;28;20036;-76
2023/10/07 08:54:26;;;;;;;1999.90;999.90;;;14.60;99.90;;;;;;4953432;28;20032;-76
2023/10/07 08:56:57;;;;;;;1999.90;999.90;;;14.60;99.90;;;;;;4951364;28;20508;-76
2023/10/07 08:59:25;;;;;;;1999.90;999.90;;;14.60;99.90;;;;;;4952643;28;20126;-76
2023/10/07 09:01:57;;;;;;;1999.90;999.90;;;14.60;99.90;;;;;;4953076;28;20028;-76
2023/10/07 09:04:31;;;;;;;1999.90;999.90;;;14.70;99.90;;;;;;4951708;28;20051;-76
2023/10/07 09:06:58;;;;;;;1999.90;999.90;;;14.90;99.90;;;;;;4952867;28;20027;-76
2023/10/07 09:09:49;;;;;;;1999.90;999.90;;;14.80;99.90;;;;;;4952992;28;20497;-76
2023/10/07 09:12:15;;;;;;;1999.90;999.90;;;14.90;99.90;;;;;;4952895;28;20481;-76
2023/10/07 09:15:07;;;;;;;1999.90;999.90;;;15.10;99.90;;;;;;4952980;28;20039;-76
2023/10/07 09:17:34;;;;;;;1999.90;999.90;;;15.20;99.90;;;;;;4952004;28;20040;-76
2023/10/07 09:20:01;;;;;;;1999.90;999.90;;;15.20;99.90;;;;;;4952500;28;20024;-76
2023/10/07 09:22:33;;;;;;;1999.90;999.90;;;15.30;99.90;;;;;;4951218;28;20042;-76
2023/10/07 09:25:17;;;;;;;1999.90;999.90;;;15.40;99.90;;;;;;4952694;28;20476;-76
2023/10/07 09:27:54;;;;;;;1999.90;999.90;;;15.50;99.90;;;;;;4952259;28;20481;-76
2023/10/07 09:33:13;;;;;;;1999.90;999.90;;;15.70;99.90;;;;;;4952478;28;20040;-76
2023/10/07 09:35:42;;;;;;;1999.90;999.90;;;15.70;99.90;;;;;;4955614;28;20035;-76
2023/10/07 09:38:12;;;;;;;1999.90;999.90;;;15.70;99.90;;;;;;4954511;28;20043;-76
2023/10/07 09:43:27;;;;;;;1999.90;999.90;;;15.70;99.90;;;;;;4952969;28;20131;-76
2023/10/07 09:45:53;;;;;;;1999.90;999.90;;;15.70;99.90;;;;;;4955381;28;20066;-76
2023/10/07 09:48:31;;;;;;;1999.90;999.90;;;15.90;99.90;;;;;;4955345;28;20079;-76
2023/10/07 09:51:02;;;;;;;1999.90;999.90;;;16.00;99.90;;;;;;4955896;28;20545;-76
2023/10/07 09:53:57;;;;;;;1999.90;999.90;;;16.00;99.90;;;;;;4955653;28;20051;-75
2023/10/07 09:56:43;;;;;;;1999.90;999.90;;;16.10;99.90;;;;;;4954877;28;20032;-76
2023/10/07 09:59:26;;;;;;;1999.90;999.90;;;16.10;99.90;;;;;;4955082;28;20040;-76
2023/10/07 10:02:32;;;;;;;1999.90;999.90;;;16.20;99.90;;;;;;4955500;28;20469;-76
2023/10/07 10:05:26;;;;;;;1999.90;999.90;;;16.30;99.90;;;;;;4955447;28;20038;-76
2023/10/07 10:07:58;;;;;;;1999.90;999.90;;;16.30;99.90;;;;;;4953558;28;20130;-76
2023/10/07 10:10:33;;;;;;;1999.90;999.90;;;16.30;99.90;;;;;;4955077;28;20611;-76
2023/10/07 10:21:04;;;;;;;1999.90;999.90;;;16.70;99.90;;;;;;4952383;28;20031;-76
2023/10/07 10:23:34;;;;;;;1999.90;999.90;;;16.90;99.90;;;;;;4953534;28;20039;-76
2023/10/07 10:26:14;;;;;;;1999.90;999.90;;;17.20;99.90;;;;;;4954915;28;20078;-76
2023/10/07 10:28:41;;;;;;;1999.90;999.90;;;17.30;99.90;;;;;;4955048;28;20492;-76
2023/10/07 10:31:18;;;;;;;1999.90;999.90;;;17.60;99.90;;;;;;4954783;28;20129;-76
2023/10/07 10:33:44;;;;;;;1999.90;999.90;;;17.90;99.90;;;;;;4954574;28;20420;-76
2023/10/07 10:36:12;;;;;;;1999.90;999.90;;;18.20;99.90;;;;;;4953098;28;20039;-76
2023/10/07 10:38:38;;;;;;;1999.90;999.90;;;18.60;99.90;;;;;;4952898;28;20511;-76
2023/10/07 10:41:04;;;;;;;1999.90;999.90;;;18.50;99.90;;;;;;4953217;28;20386;-76
2023/10/07 10:43:31;;;;;;;1999.90;999.90;;;18.60;99.90;;;;;;4954732;28;20482;-76
2023/10/07 10:46:14;;;;;;;1999.90;999.90;;;18.50;99.90;;;;;;4953267;28;20035;-76
2023/10/07 10:48:41;;;;;;;1999.90;999.90;;;18.70;99.90;;;;;;4954806;28;20039;-76
2023/10/07 10:51:09;;;;;;;1999.90;999.90;;;18.70;99.90;;;;;;4954681;28;20032;-76
2023/10/07 10:53:41;;;;;;;1999.90;999.90;;;18.60;99.90;;;;;;4954328;28;20031;-76
2023/10/07 10:56:07;;;;;;;1999.90;999.90;;;18.70;99.90;;;;;;4952894;28;20066;-76
2023/10/07 10:58:36;;;;;;;1999.90;999.90;;;18.90;99.90;;;;;;4954276;28;20075;-75
2023/10/07 11:01:05;;;;;;;1999.90;999.90;;;19.10;99.90;;;;;;4954108;28;20035;-75
2023/10/07 11:03:31;;;;;;;1999.90;999.90;;;19.20;99.90;;;;;;4954013;28;20039;-75
2023/10/07 11:05:57;;;;;;;1999.90;999.90;;;19.20;99.90;;;;;;4954063;28;20119;-75
2023/10/07 11:08:26;;;;;;;1999.90;999.90;;;19.30;99.90;;;;;;4954093;28;20097;-75
2023/10/07 11:10:54;;;;;;;1999.90;999.90;;;19.30;99.90;;;;;;4954107;28;20490;-75
2023/10/07 11:13:20;;;;;;;1999.90;999.90;;;19.20;99.90;;;;;;4954122;28;20035;-75
2023/10/07 11:16:12;;;;;;;1999.90;999.90;;;18.90;99.90;;;;;;4953839;28;20046;-75
2023/10/07 11:18:41;;;;;;;1999.90;999.90;;;18.80;99.90;;;;;;4953795;28;20115;-75
2023/10/07 11:21:18;;;;;;;1999.90;999.90;;;19.00;99.90;;;;;;4953825;28;20552;-75
2023/10/07 11:23:50;;;;;;;1999.90;999.90;;;18.90;99.90;;;;;;4954145;28;20036;-76
2023/10/07 11:26:19;;;;;;;1999.90;999.90;;;18.70;99.90;;;;;;4953533;28;20059;-75
2023/10/07 11:28:48;;;;;;;1999.90;999.90;;;18.50;99.90;;;;;;4953653;28;20055;-76
2023/10/07 11:31:20;;;;;;;1999.90;999.90;;;18.60;99.90;;;;;;4953631;28;20038;-75
2023/10/07 11:33:50;;;;;;;1999.90;999.90;;;18.70;99.90;;;;;;4953882;28;20114;-75
2023/10/07 11:36:16;;;;;;;1999.90;999.90;;;18.80;99.90;;;;;;4953598;28;20032;-75
2023/10/07 11:38:42;;;;;;;1999.90;999.90;;;18.90;99.90;;;;;;4953511;28;20122;-75
2023/10/07 11:41:10;;;;;;;1999.90;999.90;;;18.90;99.90;;;;;;4952316;28;20105;-75
2023/10/07 11:43:48;;;;;;;1999.90;999.90;;;18.70;99.90;;;;;;4953899;28;20107;-75
2023/10/07 11:46:15;;;;;;;1999.90;999.90;;;18.70;99.90;;;;;;4953569;28;20032;-75
2023/10/07 11:48:44;;;;;;;1999.90;999.90;;;18.80;99.90;;;;;;4954085;28;20045;-76
2023/10/07 11:51:10;;;;;;;1999.90;999.90;;;19.00;99.90;;;;;;4953624;28;20070;-75
2023/10/07 11:53:36;;;;;;;1999.90;999.90;;;19.10;99.90;;;;;;4952068;28;20469;-75
2023/10/07 11:56:05;;;;;;;1999.90;999.90;;;19.40;99.90;;;;;;4952947;28;20108;-75
2023/10/07 11:58:32;;;;;;;1999.90;999.90;;;19.40;99.90;;;;;;4952755;28;20069;-76
2023/10/07 12:00:58;;;;;;;1999.90;999.90;;;19.40;99.90;;;;;;4953489;28;20115;-75
2023/10/07 12:03:25;;;;;;;1999.90;999.90;;;19.60;99.90;;;;;;4953661;28;20042;-75
2023/10/07 12:05:50;;;;;;;1999.90;999.90;;;19.60;99.90;;;;;;4953179;28;20031;-76
2023/10/07 12:08:18;;;;;;;1999.90;999.90;;;19.50;99.90;;;;;;4953335;28;20031;-75
2023/10/07 12:10:44;;;;;;;1999.90;999.90;;;19.90;99.90;;;;;;4953069;28;20038;-76
2023/10/07 12:13:14;;;;;;;1999.90;999.90;;;19.70;99.90;;;;;;4953384;28;20509;-76
2023/10/07 12:15:42;;;;;;;1999.90;999.90;;;19.60;99.90;;;;;;4951787;28;20035;-76
2023/10/07 12:18:16;;;;;;;1999.90;999.90;;;19.60;99.90;;;;;;4952851;28;20043;-76
2023/10/07 12:20:42;;;;;;;1999.90;999.90;;;19.70;99.90;;;;;;4953343;28;20098;-75
2023/10/07 12:23:08;;;;;;;1999.90;999.90;;;19.80;99.90;;;;;;4951697;28;20523;-75
2023/10/07 12:25:35;;;;;;;1999.90;999.90;;;19.80;99.90;;;;;;4953143;28;20039;-76
2023/10/07 12:28:05;;;;;;;1999.90;999.90;;;19.80;99.90;;;;;;4952935;28;20758;-76
2023/10/07 12:30:31;;;;;;;1999.90;999.90;;;19.90;99.90;;;;;;4953015;28;20039;-75
2023/10/07 12:32:57;;;;;;;1999.90;999.90;;;19.90;99.90;;;;;;4953213;28;20044;-76
2023/10/07 12:35:24;;;;;;;1999.90;999.90;;;19.80;99.30;;;;;;4953419;28;20032;-75
2023/10/07 12:37:52;;;;;;;1999.90;999.90;;;19.80;99.80;;;;;;4952428;28;20040;-76
2023/10/07 12:40:18;;;;;;;1999.90;999.90;;;19.60;99.90;;;;;;4953138;28;20058;-75
2023/10/07 12:42:50;;;;;;;1999.90;999.90;;;19.60;99.90;;;;;;4952965;28;20043;-76
2023/10/07 12:45:16;;;;;;;1999.90;999.90;;;19.50;99.70;;;;;;4953166;28;20478;-76
2023/10/07 12:47:42;;;;;;;1999.90;999.90;;;19.70;99.80;;;;;;4952579;28;20036;-76
2023/10/07 12:50:28;;;;;;;1999.90;999.90;;;19.60;99.90;;;;;;4952745;28;20485;-75
2023/10/07 12:52:55;;;;;;;1999.90;999.90;;;19.60;99.10;;;;;;4951540;28;20098;-75
2023/10/07 12:55:21;;;;;;;1999.90;999.90;;;19.60;99.40;;;;;;4952874;28;20036;-75
2023/10/07 12:57:49;;;;;;;1999.90;999.90;;;19.60;99.90;;;;;;4951810;28;20454;-76
2023/10/07 13:00:31;;;;;;;1999.90;999.90;;;19.60;99.90;;;;;;4951320;28;20040;-76
2023/10/07 13:02:58;;;;;;;1999.90;999.90;;;19.50;99.90;;;;;;4952561;28;20027;-75
2023/10/07 13:05:23;;;;;;;1999.90;999.90;;;19.40;98.80;;;;;;4951265;28;20035;-75
2023/10/07 13:07:51;;;;;;;1999.90;999.90;;;19.60;99.90;;;;;;4952099;28;20445;-75
2023/10/07 13:10:17;;;;;;;1999.90;999.90;;;19.70;99.40;;;;;;4955134;28;20032;-76
2023/10/07 13:12:44;;;;;;;1999.90;999.90;;;20.00;98.80;;;;;;4955477;28;20127;-75
2023/10/07 13:15:18;;;;;;;1999.90;999.90;;;20.10;99.30;;;;;;4955460;28;20067;-76
2023/10/07 13:17:45;;;;;;;1999.90;999.90;;;20.10;99.30;;;;;;4955038;28;20031;-76
2023/10/07 13:20:23;;;;;;;1999.90;999.90;;;19.80;98.00;;;;;;4955286;28;20523;-75
2023/10/07 13:22:49;;;;;;;1999.90;999.90;;;19.90;98.90;;;;;;4955553;28;20516;-75
2023/10/07 13:25:19;;;;;;;1999.90;999.90;;;20.00;99.00;;;;;;4955416;28;20119;-75
2023/10/07 13:27:46;;;;;;;1999.90;999.90;;;20.10;98.80;;;;;;4954915;28;20896;-75
2023/10/07 13:30:12;;;;;;;1999.90;999.90;;;20.40;97.80;;;;;;4953807;28;20098;-75